sensor_id;sensor_type;location;lat;lon;timestamp;P1;durP1;ratioP1;P2;durP2;ratioP2
51614;SDS011;37695;52.960;6.188;2024-01-16T00:01:46;2.80;;;0.45;;
51614;SDS011;37695;52.960;6.188;2024-01-16T00:04:12;3.63;;;0.20;;
51614;SDS011;37695;52.960;6.188;2024-01-16T00:06:41;3.05;;;0.17;;
51614;SDS011;37695;52.960;6.188;2024-01-16T00:09:07;0.10;;;0.00;;
51614;SDS011;37695;52.960;6.188;2024-01-16T00:11:39;2.28;;;0.10;;
51614;SDS011;37695;52.960;6.188;2024-01-16T00:14:08;1.23;;;0.00;;
51614;SDS011;37695;52.960;6.188;2024-01-16T00:16:41;1.48;;;0.10;;
51614;SDS011;37695;52.960;6.188;2024-01-16T00:19:13;3.17;;;0.55;;
51614;SDS011;37695;52.960;6.188;2024-01-16T00:21:43;1.98;;;0.00;;
51614;SDS011;37695;52.960;6.188;2024-01-16T00:24:13;0.63;;;0.00;;
51614;SDS011;37695;52.960;6.188;2024-01-16T00:26:39;1.20;;;0.35;;
51614;SDS011;37695;52.960;6.188;2024-01-16T00:29:05;1.63;;;0.00;;
51614;SDS011;37695;52.960;6.188;2024-01-16T00:31:31;3.47;;;0.03;;
51614;SDS011;37695;52.960;6.188;2024-01-16T00:33:57;1.05;;;0.20;;
51614;SDS011;37695;52.960;6.188;2024-01-16T00:36:23;1.00;;;0.00;;
51614;SDS011;37695;52.960;6.188;2024-01-16T00:38:49;5.18;;;0.30;;
51614;SDS011;37695;52.960;6.188;2024-01-16T00:41:15;1.70;;;0.10;;
51614;SDS011;37695;52.960;6.188;2024-01-16T00:43:42;1.90;;;0.10;;
51614;SDS011;37695;52.960;6.188;2024-01-16T00:46:08;1.95;;;0.00;;
51614;SDS011;37695;52.960;6.188;2024-01-16T00:48:34;0.95;;;0.00;;
51614;SDS011;37695;52.960;6.188;2024-01-16T00:51:01;2.30;;;0.05;;
51614;SDS011;37695;52.960;6.188;2024-01-16T00:53:27;2.20;;;0.10;;
51614;SDS011;37695;52.960;6.188;2024-01-16T00:55:53;2.45;;;0.10;;
51614;SDS011;37695;52.960;6.188;2024-01-16T00:58:22;0.93;;;0.00;;
51614;SDS011;37695;52.960;6.188;2024-01-16T01:00:48;1.85;;;0.10;;
51614;SDS011;37695;52.960;6.188;2024-01-16T01:03:14;0.20;;;0.00;;
51614;SDS011;37695;52.960;6.188;2024-01-16T01:05:40;0.82;;;0.00;;
51614;SDS011;37695;52.960;6.188;2024-01-16T01:08:06;2.13;;;0.00;;
51614;SDS011;37695;52.960;6.188;2024-01-16T01:10:32;2.58;;;0.10;;
51614;SDS011;37695;52.960;6.188;2024-01-16T01:12:58;1.33;;;0.10;;
51614;SDS011;37695;52.960;6.188;2024-01-16T01:15:24;2.53;;;0.10;;
51614;SDS011;37695;52.960;6.188;2024-01-16T01:17:51;1.80;;;0.03;;
51614;SDS011;37695;52.960;6.188;2024-01-16T01:20:17;2.75;;;0.20;;
51614;SDS011;37695;52.960;6.188;2024-01-16T01:22:44;1.80;;;0.13;;
51614;SDS011;37695;52.960;6.188;2024-01-16T01:25:13;1.70;;;0.28;;
51614;SDS011;37695;52.960;6.188;2024-01-16T01:27:39;1.42;;;0.00;;
51614;SDS011;37695;52.960;6.188;2024-01-16T01:30:06;3.58;;;0.10;;
51614;SDS011;37695;52.960;6.188;2024-01-16T01:32:35;1.10;;;0.08;;
51614;SDS011;37695;52.960;6.188;2024-01-16T01:35:01;3.03;;;0.10;;
51614;SDS011;37695;52.960;6.188;2024-01-16T01:37:27;4.68;;;0.20;;
51614;SDS011;37695;52.960;6.188;2024-01-16T01:39:53;1.65;;;0.10;;
51614;SDS011;37695;52.960;6.188;2024-01-16T01:42:19;3.05;;;0.10;;
51614;SDS011;37695;52.960;6.188;2024-01-16T01:44:45;3.40;;;0.20;;
51614;SDS011;37695;52.960;6.188;2024-01-16T01:47:11;1.85;;;0.00;;
51614;SDS011;37695;52.960;6.188;2024-01-16T01:49:37;1.35;;;0.30;;
51614;SDS011;37695;52.960;6.188;2024-01-16T01:52:04;2.15;;;0.10;;
51614;SDS011;37695;52.960;6.188;2024-01-16T01:54:30;5.43;;;0.10;;
51614;SDS011;37695;52.960;6.188;2024-01-16T01:56:59;4.25;;;0.10;;
51614;SDS011;37695;52.960;6.188;2024-01-16T01:59:25;2.83;;;0.73;;
51614;SDS011;37695;52.960;6.188;2024-01-16T02:01:51;2.50;;;0.10;;
51614;SDS011;37695;52.960;6.188;2024-01-16T02:04:17;3.17;;;0.10;;
51614;SDS011;37695;52.960;6.188;2024-01-16T02:06:44;2.40;;;0.20;;
51614;SDS011;37695;52.960;6.188;2024-01-16T02:09:11;2.15;;;0.17;;
51614;SDS011;37695;52.960;6.188;2024-01-16T02:11:41;1.85;;;0.20;;
51614;SDS011;37695;52.960;6.188;2024-01-16T02:14:07;1.83;;;0.20;;
51614;SDS011;37695;52.960;6.188;2024-01-16T02:16:37;2.83;;;0.17;;
51614;SDS011;37695;52.960;6.188;2024-01-16T02:19:07;2.08;;;0.13;;
51614;SDS011;37695;52.960;6.188;2024-01-16T02:21:37;3.42;;;0.10;;
51614;SDS011;37695;52.960;6.188;2024-01-16T02:24:06;2.63;;;0.17;;
51614;SDS011;37695;52.960;6.188;2024-01-16T02:26:33;0.68;;;0.10;;
51614;SDS011;37695;52.960;6.188;2024-01-16T02:29:02;2.33;;;0.20;;
51614;SDS011;37695;52.960;6.188;2024-01-16T02:31:29;3.70;;;0.60;;
51614;SDS011;37695;52.960;6.188;2024-01-16T02:33:55;1.80;;;0.00;;
51614;SDS011;37695;52.960;6.188;2024-01-16T02:36:21;3.38;;;0.17;;
51614;SDS011;37695;52.960;6.188;2024-01-16T02:38:47;2.63;;;0.10;;
51614;SDS011;37695;52.960;6.188;2024-01-16T02:41:14;0.47;;;0.08;;
51614;SDS011;37695;52.960;6.188;2024-01-16T02:43:41;1.27;;;0.22;;
51614;SDS011;37695;52.960;6.188;2024-01-16T02:46:07;0.40;;;0.10;;
51614;SDS011;37695;52.960;6.188;2024-01-16T02:48:36;3.13;;;0.10;;
51614;SDS011;37695;52.960;6.188;2024-01-16T02:51:02;3.15;;;0.45;;
51614;SDS011;37695;52.960;6.188;2024-01-16T02:53:29;4.25;;;0.10;;
51614;SDS011;37695;52.960;6.188;2024-01-16T02:55:55;3.00;;;0.22;;
51614;SDS011;37695;52.960;6.188;2024-01-16T02:58:23;1.05;;;0.08;;
51614;SDS011;37695;52.960;6.188;2024-01-16T03:00:50;2.28;;;0.20;;
51614;SDS011;37695;52.960;6.188;2024-01-16T03:03:16;4.57;;;0.20;;
51614;SDS011;37695;52.960;6.188;2024-01-16T03:05:42;2.83;;;0.17;;
51614;SDS011;37695;52.960;6.188;2024-01-16T03:08:08;2.67;;;0.30;;
51614;SDS011;37695;52.960;6.188;2024-01-16T03:10:34;0.65;;;0.00;;
51614;SDS011;37695;52.960;6.188;2024-01-16T03:13:00;4.10;;;0.20;;
51614;SDS011;37695;52.960;6.188;2024-01-16T03:15:26;2.58;;;0.13;;
51614;SDS011;37695;52.960;6.188;2024-01-16T03:17:52;3.00;;;0.10;;
51614;SDS011;37695;52.960;6.188;2024-01-16T03:20:18;1.80;;;0.10;;
51614;SDS011;37695;52.960;6.188;2024-01-16T03:22:44;0.77;;;0.10;;
51614;SDS011;37695;52.960;6.188;2024-01-16T03:25:10;3.22;;;0.10;;
51614;SDS011;37695;52.960;6.188;2024-01-16T03:27:37;3.25;;;0.10;;
51614;SDS011;37695;52.960;6.188;2024-01-16T03:30:03;1.38;;;0.20;;
51614;SDS011;37695;52.960;6.188;2024-01-16T03:32:30;5.57;;;0.22;;
51614;SDS011;37695;52.960;6.188;2024-01-16T03:34:56;2.95;;;0.20;;
51614;SDS011;37695;52.960;6.188;2024-01-16T03:37:22;3.10;;;0.10;;
51614;SDS011;37695;52.960;6.188;2024-01-16T03:39:48;5.22;;;0.10;;
51614;SDS011;37695;52.960;6.188;2024-01-16T03:42:15;3.05;;;0.10;;
51614;SDS011;37695;52.960;6.188;2024-01-16T03:44:41;6.22;;;0.82;;
51614;SDS011;37695;52.960;6.188;2024-01-16T03:47:08;0.90;;;0.10;;
51614;SDS011;37695;52.960;6.188;2024-01-16T03:49:34;1.67;;;0.03;;
51614;SDS011;37695;52.960;6.188;2024-01-16T03:52:00;2.22;;;0.30;;
51614;SDS011;37695;52.960;6.188;2024-01-16T03:54:27;3.05;;;0.10;;
51614;SDS011;37695;52.960;6.188;2024-01-16T03:56:53;5.75;;;0.40;;
51614;SDS011;37695;52.960;6.188;2024-01-16T03:59:19;4.13;;;0.30;;
51614;SDS011;37695;52.960;6.188;2024-01-16T04:01:45;3.50;;;0.20;;
51614;SDS011;37695;52.960;6.188;2024-01-16T04:04:13;2.95;;;0.10;;
51614;SDS011;37695;52.960;6.188;2024-01-16T04:06:39;2.65;;;0.28;;
51614;SDS011;37695;52.960;6.188;2024-01-16T04:09:05;1.10;;;0.10;;
51614;SDS011;37695;52.960;6.188;2024-01-16T04:11:31;2.25;;;0.20;;
51614;SDS011;37695;52.960;6.188;2024-01-16T04:13:57;2.20;;;0.10;;
51614;SDS011;37695;52.960;6.188;2024-01-16T04:16:23;1.25;;;0.10;;
51614;SDS011;37695;52.960;6.188;2024-01-16T04:18:49;3.30;;;0.20;;
51614;SDS011;37695;52.960;6.188;2024-01-16T04:21:15;1.50;;;0.10;;
51614;SDS011;37695;52.960;6.188;2024-01-16T04:23:41;2.03;;;0.13;;
51614;SDS011;37695;52.960;6.188;2024-01-16T04:26:07;1.55;;;0.20;;
51614;SDS011;37695;52.960;6.188;2024-01-16T04:28:33;2.33;;;0.43;;
51614;SDS011;37695;52.960;6.188;2024-01-16T04:31:00;4.65;;;0.30;;
51614;SDS011;37695;52.960;6.188;2024-01-16T04:33:26;1.02;;;0.20;;
51614;SDS011;37695;52.960;6.188;2024-01-16T04:35:52;1.98;;;0.30;;
51614;SDS011;37695;52.960;6.188;2024-01-16T04:38:18;1.92;;;0.20;;
51614;SDS011;37695;52.960;6.188;2024-01-16T04:40:44;4.13;;;0.22;;
51614;SDS011;37695;52.960;6.188;2024-01-16T04:43:10;2.47;;;0.10;;
51614;SDS011;37695;52.960;6.188;2024-01-16T04:45:36;2.92;;;0.20;;
51614;SDS011;37695;52.960;6.188;2024-01-16T04:48:02;3.92;;;0.52;;
51614;SDS011;37695;52.960;6.188;2024-01-16T04:50:29;4.35;;;0.10;;
51614;SDS011;37695;52.960;6.188;2024-01-16T04:52:58;4.05;;;0.20;;
51614;SDS011;37695;52.960;6.188;2024-01-16T04:55:27;2.30;;;0.30;;
51614;SDS011;37695;52.960;6.188;2024-01-16T04:57:56;4.03;;;0.20;;
51614;SDS011;37695;52.960;6.188;2024-01-16T05:00:22;5.13;;;0.45;;
51614;SDS011;37695;52.960;6.188;2024-01-16T05:02:48;1.10;;;0.13;;
51614;SDS011;37695;52.960;6.188;2024-01-16T05:05:14;2.40;;;0.10;;
51614;SDS011;37695;52.960;6.188;2024-01-16T05:07:41;3.63;;;0.30;;
51614;SDS011;37695;52.960;6.188;2024-01-16T05:10:09;1.17;;;0.00;;
51614;SDS011;37695;52.960;6.188;2024-01-16T05:12:38;1.10;;;0.00;;
51614;SDS011;37695;52.960;6.188;2024-01-16T05:15:04;3.67;;;0.30;;
51614;SDS011;37695;52.960;6.188;2024-01-16T05:17:30;2.17;;;0.25;;
51614;SDS011;37695;52.960;6.188;2024-01-16T05:19:56;4.90;;;0.20;;
51614;SDS011;37695;52.960;6.188;2024-01-16T05:22:22;5.55;;;0.13;;
51614;SDS011;37695;52.960;6.188;2024-01-16T05:24:50;2.80;;;0.15;;
51614;SDS011;37695;52.960;6.188;2024-01-16T05:27:16;3.33;;;0.75;;
51614;SDS011;37695;52.960;6.188;2024-01-16T05:29:42;3.28;;;0.20;;
51614;SDS011;37695;52.960;6.188;2024-01-16T05:32:08;2.28;;;0.10;;
51614;SDS011;37695;52.960;6.188;2024-01-16T05:34:34;2.25;;;0.10;;
51614;SDS011;37695;52.960;6.188;2024-01-16T05:37:00;2.72;;;0.20;;
51614;SDS011;37695;52.960;6.188;2024-01-16T05:39:26;3.00;;;0.30;;
51614;SDS011;37695;52.960;6.188;2024-01-16T05:41:52;2.00;;;0.03;;
51614;SDS011;37695;52.960;6.188;2024-01-16T05:44:18;3.85;;;0.10;;
51614;SDS011;37695;52.960;6.188;2024-01-16T05:46:44;2.75;;;0.10;;
51614;SDS011;37695;52.960;6.188;2024-01-16T05:49:10;2.17;;;0.05;;
51614;SDS011;37695;52.960;6.188;2024-01-16T05:51:36;4.20;;;0.30;;
51614;SDS011;37695;52.960;6.188;2024-01-16T05:54:02;3.10;;;0.10;;
51614;SDS011;37695;52.960;6.188;2024-01-16T05:56:28;3.13;;;0.15;;
51614;SDS011;37695;52.960;6.188;2024-01-16T05:58:54;3.70;;;0.00;;
51614;SDS011;37695;52.960;6.188;2024-01-16T06:01:20;2.70;;;0.10;;
51614;SDS011;37695;52.960;6.188;2024-01-16T06:03:46;2.20;;;0.35;;
51614;SDS011;37695;52.960;6.188;2024-01-16T06:06:13;3.85;;;0.17;;
51614;SDS011;37695;52.960;6.188;2024-01-16T06:08:39;4.35;;;0.10;;
51614;SDS011;37695;52.960;6.188;2024-01-16T06:11:05;2.92;;;0.10;;
51614;SDS011;37695;52.960;6.188;2024-01-16T06:13:31;2.33;;;0.10;;
51614;SDS011;37695;52.960;6.188;2024-01-16T06:15:58;2.67;;;0.30;;
51614;SDS011;37695;52.960;6.188;2024-01-16T06:18:24;2.70;;;0.10;;
51614;SDS011;37695;52.960;6.188;2024-01-16T06:20:50;2.92;;;0.25;;
51614;SDS011;37695;52.960;6.188;2024-01-16T06:23:16;2.53;;;0.08;;
51614;SDS011;37695;52.960;6.188;2024-01-16T06:25:42;3.67;;;0.57;;
51614;SDS011;37695;52.960;6.188;2024-01-16T06:28:08;3.75;;;0.32;;
51614;SDS011;37695;52.960;6.188;2024-01-16T06:30:34;5.32;;;0.30;;
51614;SDS011;37695;52.960;6.188;2024-01-16T06:33:00;0.98;;;0.10;;
51614;SDS011;37695;52.960;6.188;2024-01-16T06:35:27;1.80;;;0.13;;
51614;SDS011;37695;52.960;6.188;2024-01-16T06:37:53;1.60;;;0.00;;
51614;SDS011;37695;52.960;6.188;2024-01-16T06:40:19;3.30;;;0.08;;
51614;SDS011;37695;52.960;6.188;2024-01-16T06:42:46;3.17;;;0.20;;
51614;SDS011;37695;52.960;6.188;2024-01-16T06:45:12;2.38;;;0.10;;
51614;SDS011;37695;52.960;6.188;2024-01-16T06:47:38;2.22;;;0.03;;
51614;SDS011;37695;52.960;6.188;2024-01-16T06:50:05;3.05;;;0.15;;
51614;SDS011;37695;52.960;6.188;2024-01-16T06:52:32;1.33;;;0.10;;
51614;SDS011;37695;52.960;6.188;2024-01-16T06:54:59;3.83;;;0.25;;
51614;SDS011;37695;52.960;6.188;2024-01-16T06:57:25;1.15;;;0.13;;
51614;SDS011;37695;52.960;6.188;2024-01-16T06:59:52;2.22;;;0.35;;
51614;SDS011;37695;52.960;6.188;2024-01-16T07:02:18;2.58;;;0.15;;
51614;SDS011;37695;52.960;6.188;2024-01-16T07:04:44;4.90;;;0.20;;
51614;SDS011;37695;52.960;6.188;2024-01-16T07:07:10;2.03;;;0.40;;
51614;SDS011;37695;52.960;6.188;2024-01-16T07:09:36;2.58;;;0.10;;
51614;SDS011;37695;52.960;6.188;2024-01-16T07:12:02;3.65;;;0.15;;
51614;SDS011;37695;52.960;6.188;2024-01-16T07:14:28;2.53;;;0.17;;
51614;SDS011;37695;52.960;6.188;2024-01-16T07:16:54;2.42;;;0.30;;
51614;SDS011;37695;52.960;6.188;2024-01-16T07:19:20;5.00;;;0.10;;
51614;SDS011;37695;52.960;6.188;2024-01-16T07:21:46;2.50;;;0.20;;
51614;SDS011;37695;52.960;6.188;2024-01-16T07:24:12;2.45;;;0.20;;
51614;SDS011;37695;52.960;6.188;2024-01-16T07:26:39;5.10;;;0.20;;
51614;SDS011;37695;52.960;6.188;2024-01-16T07:29:06;4.53;;;0.45;;
51614;SDS011;37695;52.960;6.188;2024-01-16T07:31:32;1.33;;;0.10;;
51614;SDS011;37695;52.960;6.188;2024-01-16T07:33:58;1.73;;;0.10;;
51614;SDS011;37695;52.960;6.188;2024-01-16T07:36:24;2.28;;;0.20;;
51614;SDS011;37695;52.960;6.188;2024-01-16T07:38:50;3.38;;;0.10;;
51614;SDS011;37695;52.960;6.188;2024-01-16T07:41:16;3.65;;;0.15;;
51614;SDS011;37695;52.960;6.188;2024-01-16T07:43:42;4.03;;;0.20;;
51614;SDS011;37695;52.960;6.188;2024-01-16T07:46:08;2.03;;;0.10;;
51614;SDS011;37695;52.960;6.188;2024-01-16T07:48:34;1.70;;;0.10;;
51614;SDS011;37695;52.960;6.188;2024-01-16T07:51:00;2.35;;;0.20;;
51614;SDS011;37695;52.960;6.188;2024-01-16T07:53:26;2.08;;;0.20;;
51614;SDS011;37695;52.960;6.188;2024-01-16T07:55:53;3.13;;;0.20;;
51614;SDS011;37695;52.960;6.188;2024-01-16T07:58:19;2.25;;;0.20;;
51614;SDS011;37695;52.960;6.188;2024-01-16T08:00:46;1.80;;;0.10;;
51614;SDS011;37695;52.960;6.188;2024-01-16T08:03:12;1.10;;;0.25;;
51614;SDS011;37695;52.960;6.188;2024-01-16T08:05:39;2.85;;;0.20;;
51614;SDS011;37695;52.960;6.188;2024-01-16T08:08:08;1.40;;;0.20;;
51614;SDS011;37695;52.960;6.188;2024-01-16T08:10:34;4.57;;;0.20;;
51614;SDS011;37695;52.960;6.188;2024-01-16T08:13:00;2.42;;;0.38;;
51614;SDS011;37695;52.960;6.188;2024-01-16T08:15:26;3.50;;;0.20;;
51614;SDS011;37695;52.960;6.188;2024-01-16T08:17:52;2.83;;;0.15;;
51614;SDS011;37695;52.960;6.188;2024-01-16T08:20:18;3.40;;;0.32;;
51614;SDS011;37695;52.960;6.188;2024-01-16T08:22:44;3.30;;;0.45;;
51614;SDS011;37695;52.960;6.188;2024-01-16T08:25:10;5.63;;;1.00;;
51614;SDS011;37695;52.960;6.188;2024-01-16T08:27:36;2.85;;;0.55;;
51614;SDS011;37695;52.960;6.188;2024-01-16T08:30:04;4.47;;;0.95;;
51614;SDS011;37695;52.960;6.188;2024-01-16T08:32:30;2.20;;;0.50;;
51614;SDS011;37695;52.960;6.188;2024-01-16T08:34:57;2.80;;;0.50;;
51614;SDS011;37695;52.960;6.188;2024-01-16T08:37:23;3.38;;;0.38;;
51614;SDS011;37695;52.960;6.188;2024-01-16T08:39:50;0.85;;;0.05;;
51614;SDS011;37695;52.960;6.188;2024-01-16T08:42:16;2.78;;;0.35;;
51614;SDS011;37695;52.960;6.188;2024-01-16T08:44:43;5.47;;;0.22;;
51614;SDS011;37695;52.960;6.188;2024-01-16T08:47:09;2.80;;;0.30;;
51614;SDS011;37695;52.960;6.188;2024-01-16T08:49:35;0.77;;;0.00;;
51614;SDS011;37695;52.960;6.188;2024-01-16T08:52:03;0.95;;;0.00;;
51614;SDS011;37695;52.960;6.188;2024-01-16T08:54:30;0.98;;;0.13;;
51614;SDS011;37695;52.960;6.188;2024-01-16T08:56:56;1.02;;;0.00;;
51614;SDS011;37695;52.960;6.188;2024-01-16T08:59:23;1.33;;;0.00;;
51614;SDS011;37695;52.960;6.188;2024-01-16T09:01:49;0.75;;;0.00;;
51614;SDS011;37695;52.960;6.188;2024-01-16T09:04:16;1.38;;;0.00;;
51614;SDS011;37695;52.960;6.188;2024-01-16T09:06:42;0.75;;;0.05;;
51614;SDS011;37695;52.960;6.188;2024-01-16T09:09:08;2.17;;;0.10;;
51614;SDS011;37695;52.960;6.188;2024-01-16T09:11:34;2.30;;;0.10;;
51614;SDS011;37695;52.960;6.188;2024-01-16T09:14:00;1.63;;;0.10;;
51614;SDS011;37695;52.960;6.188;2024-01-16T09:16:26;1.85;;;0.20;;
51614;SDS011;37695;52.960;6.188;2024-01-16T09:18:52;3.15;;;0.20;;
51614;SDS011;37695;52.960;6.188;2024-01-16T09:21:19;2.45;;;0.43;;
51614;SDS011;37695;52.960;6.188;2024-01-16T09:23:46;3.20;;;0.40;;
51614;SDS011;37695;52.960;6.188;2024-01-16T09:26:12;6.65;;;0.50;;
51614;SDS011;37695;52.960;6.188;2024-01-16T09:28:38;1.52;;;0.20;;
51614;SDS011;37695;52.960;6.188;2024-01-16T09:31:05;2.72;;;0.35;;
51614;SDS011;37695;52.960;6.188;2024-01-16T09:33:31;3.30;;;0.38;;
51614;SDS011;37695;52.960;6.188;2024-01-16T09:35:58;3.03;;;0.32;;
51614;SDS011;37695;52.960;6.188;2024-01-16T09:38:24;1.15;;;0.30;;
51614;SDS011;37695;52.960;6.188;2024-01-16T09:40:50;3.55;;;0.77;;
51614;SDS011;37695;52.960;6.188;2024-01-16T09:43:17;2.67;;;0.50;;
51614;SDS011;37695;52.960;6.188;2024-01-16T09:45:43;2.80;;;0.50;;
51614;SDS011;37695;52.960;6.188;2024-01-16T09:48:12;4.72;;;0.65;;
51614;SDS011;37695;52.960;6.188;2024-01-16T09:50:38;4.28;;;0.80;;
51614;SDS011;37695;52.960;6.188;2024-01-16T09:53:04;3.45;;;0.73;;
51614;SDS011;37695;52.960;6.188;2024-01-16T09:55:30;2.40;;;0.80;;
51614;SDS011;37695;52.960;6.188;2024-01-16T09:57:57;3.08;;;1.10;;
51614;SDS011;37695;52.960;6.188;2024-01-16T10:00:23;4.10;;;0.98;;
51614;SDS011;37695;52.960;6.188;2024-01-16T10:02:50;4.05;;;1.27;;
51614;SDS011;37695;52.960;6.188;2024-01-16T10:05:17;5.72;;;1.42;;
51614;SDS011;37695;52.960;6.188;2024-01-16T10:07:43;1.85;;;0.77;;
51614;SDS011;37695;52.960;6.188;2024-01-16T10:10:09;3.40;;;1.10;;
51614;SDS011;37695;52.960;6.188;2024-01-16T10:12:39;4.32;;;1.50;;
51614;SDS011;37695;52.960;6.188;2024-01-16T10:15:05;4.50;;;1.20;;
51614;SDS011;37695;52.960;6.188;2024-01-16T10:17:35;3.08;;;0.90;;
51614;SDS011;37695;52.960;6.188;2024-01-16T10:20:05;2.53;;;0.68;;
51614;SDS011;37695;52.960;6.188;2024-01-16T10:22:32;3.30;;;0.80;;
51614;SDS011;37695;52.960;6.188;2024-01-16T10:27:30;3.70;;;0.30;;
51614;SDS011;37695;52.960;6.188;2024-01-16T10:29:57;0.95;;;0.17;;
51614;SDS011;37695;52.960;6.188;2024-01-16T10:32:30;2.60;;;0.45;;
51614;SDS011;37695;52.960;6.188;2024-01-16T10:37:43;1.48;;;0.15;;
51614;SDS011;37695;52.960;6.188;2024-01-16T10:40:18;2.08;;;0.30;;
51614;SDS011;37695;52.960;6.188;2024-01-16T10:42:45;3.30;;;0.40;;
51614;SDS011;37695;52.960;6.188;2024-01-16T10:45:16;2.63;;;0.20;;
51614;SDS011;37695;52.960;6.188;2024-01-16T10:47:44;3.92;;;0.20;;
51614;SDS011;37695;52.960;6.188;2024-01-16T10:50:11;4.88;;;0.30;;
51614;SDS011;37695;52.960;6.188;2024-01-16T10:52:40;2.65;;;0.28;;
51614;SDS011;37695;52.960;6.188;2024-01-16T10:55:13;1.05;;;0.10;;
51614;SDS011;37695;52.960;6.188;2024-01-16T10:57:44;2.40;;;0.20;;
51614;SDS011;37695;52.960;6.188;2024-01-16T11:00:11;0.85;;;0.10;;
51614;SDS011;37695;52.960;6.188;2024-01-16T11:02:43;3.90;;;0.43;;
51614;SDS011;37695;52.960;6.188;2024-01-16T11:05:14;1.02;;;0.15;;
51614;SDS011;37695;52.960;6.188;2024-01-16T11:07:41;2.15;;;0.10;;
51614;SDS011;37695;52.960;6.188;2024-01-16T11:10:08;2.95;;;0.20;;
51614;SDS011;37695;52.960;6.188;2024-01-16T11:12:35;1.20;;;0.20;;
51614;SDS011;37695;52.960;6.188;2024-01-16T11:15:06;2.15;;;0.10;;
51614;SDS011;37695;52.960;6.188;2024-01-16T11:20:03;5.95;;;0.82;;
51614;SDS011;37695;52.960;6.188;2024-01-16T11:22:36;0.98;;;0.10;;
51614;SDS011;37695;52.960;6.188;2024-01-16T11:25:22;1.92;;;0.10;;
51614;SDS011;37695;52.960;6.188;2024-01-16T11:28:00;2.05;;;0.20;;
51614;SDS011;37695;52.960;6.188;2024-01-16T11:30:38;2.78;;;0.15;;
51614;SDS011;37695;52.960;6.188;2024-01-16T11:33:05;1.67;;;0.10;;
51614;SDS011;37695;52.960;6.188;2024-01-16T11:35:35;0.95;;;0.15;;
51614;SDS011;37695;52.960;6.188;2024-01-16T11:38:15;2.63;;;0.30;;
51614;SDS011;37695;52.960;6.188;2024-01-16T11:40:42;2.92;;;0.45;;
51614;SDS011;37695;52.960;6.188;2024-01-16T11:48:29;3.47;;;0.60;;
51614;SDS011;37695;52.960;6.188;2024-01-16T11:50:55;2.90;;;0.40;;
51614;SDS011;37695;52.960;6.188;2024-01-16T12:01:33;2.63;;;0.50;;
51614;SDS011;37695;52.960;6.188;2024-01-16T12:04:07;3.03;;;0.65;;
51614;SDS011;37695;52.960;6.188;2024-01-16T12:06:34;3.90;;;0.40;;
51614;SDS011;37695;52.960;6.188;2024-01-16T12:09:13;2.92;;;0.40;;
51614;SDS011;37695;52.960;6.188;2024-01-16T12:11:40;3.45;;;0.52;;
51614;SDS011;37695;52.960;6.188;2024-01-16T12:14:13;2.78;;;0.73;;
51614;SDS011;37695;52.960;6.188;2024-01-16T12:16:39;6.05;;;0.93;;
51614;SDS011;37695;52.960;6.188;2024-01-16T12:19:08;2.72;;;0.60;;
51614;SDS011;37695;52.960;6.188;2024-01-16T12:21:34;5.35;;;0.65;;
51614;SDS011;37695;52.960;6.188;2024-01-16T12:24:04;5.18;;;0.80;;
51614;SDS011;37695;52.960;6.188;2024-01-16T12:26:30;3.78;;;0.93;;
51614;SDS011;37695;52.960;6.188;2024-01-16T12:28:57;6.00;;;1.05;;
51614;SDS011;37695;52.960;6.188;2024-01-16T12:31:23;5.47;;;1.20;;
51614;SDS011;37695;52.960;6.188;2024-01-16T12:33:50;6.82;;;1.30;;
51614;SDS011;37695;52.960;6.188;2024-01-16T12:36:16;3.38;;;0.80;;
51614;SDS011;37695;52.960;6.188;2024-01-16T12:38:43;5.55;;;1.02;;
51614;SDS011;37695;52.960;6.188;2024-01-16T12:41:09;2.58;;;0.90;;
51614;SDS011;37695;52.960;6.188;2024-01-16T12:43:36;4.07;;;1.00;;
51614;SDS011;37695;52.960;6.188;2024-01-16T12:46:02;5.10;;;1.00;;
51614;SDS011;37695;52.960;6.188;2024-01-16T12:48:29;5.05;;;1.30;;
51614;SDS011;37695;52.960;6.188;2024-01-16T12:50:58;3.67;;;0.80;;
51614;SDS011;37695;52.960;6.188;2024-01-16T12:53:27;5.25;;;1.40;;
51614;SDS011;37695;52.960;6.188;2024-01-16T12:55:59;4.18;;;1.10;;
51614;SDS011;37695;52.960;6.188;2024-01-16T12:58:36;7.28;;;1.20;;
51614;SDS011;37695;52.960;6.188;2024-01-16T13:03:46;5.00;;;1.10;;
51614;SDS011;37695;52.960;6.188;2024-01-16T13:06:16;5.28;;;1.60;;
51614;SDS011;37695;52.960;6.188;2024-01-16T13:08:46;4.47;;;1.27;;
51614;SDS011;37695;52.960;6.188;2024-01-16T13:11:13;4.32;;;1.23;;
51614;SDS011;37695;52.960;6.188;2024-01-16T13:13:48;4.00;;;1.10;;
51614;SDS011;37695;52.960;6.188;2024-01-16T13:16:25;8.25;;;1.55;;
51614;SDS011;37695;52.960;6.188;2024-01-16T13:18:59;10.15;;;1.88;;
51614;SDS011;37695;52.960;6.188;2024-01-16T13:21:26;5.45;;;1.02;;
51614;SDS011;37695;52.960;6.188;2024-01-16T13:23:53;4.32;;;1.02;;
51614;SDS011;37695;52.960;6.188;2024-01-16T13:26:19;4.30;;;0.85;;
51614;SDS011;37695;52.960;6.188;2024-01-16T13:28:45;3.92;;;1.10;;
51614;SDS011;37695;52.960;6.188;2024-01-16T13:31:12;4.30;;;1.10;;
51614;SDS011;37695;52.960;6.188;2024-01-16T13:33:39;2.45;;;0.60;;
51614;SDS011;37695;52.960;6.188;2024-01-16T13:36:05;2.42;;;0.77;;
51614;SDS011;37695;52.960;6.188;2024-01-16T13:38:31;3.80;;;0.80;;
51614;SDS011;37695;52.960;6.188;2024-01-16T13:40:57;2.72;;;0.63;;
51614;SDS011;37695;52.960;6.188;2024-01-16T13:43:23;4.57;;;0.55;;
51614;SDS011;37695;52.960;6.188;2024-01-16T13:45:49;5.53;;;0.77;;
51614;SDS011;37695;52.960;6.188;2024-01-16T13:48:16;6.93;;;0.70;;
51614;SDS011;37695;52.960;6.188;2024-01-16T13:50:43;4.40;;;1.05;;
51614;SDS011;37695;52.960;6.188;2024-01-16T13:53:09;2.17;;;0.45;;
51614;SDS011;37695;52.960;6.188;2024-01-16T13:55:38;3.17;;;0.55;;
51614;SDS011;37695;52.960;6.188;2024-01-16T13:58:06;7.00;;;0.50;;
51614;SDS011;37695;52.960;6.188;2024-01-16T14:00:32;2.13;;;0.40;;
51614;SDS011;37695;52.960;6.188;2024-01-16T14:02:58;1.63;;;0.30;;
51614;SDS011;37695;52.960;6.188;2024-01-16T14:05:24;4.68;;;0.40;;
51614;SDS011;37695;52.960;6.188;2024-01-16T14:07:51;2.88;;;0.40;;
51614;SDS011;37695;52.960;6.188;2024-01-16T14:10:18;5.18;;;0.40;;
51614;SDS011;37695;52.960;6.188;2024-01-16T14:12:46;3.03;;;0.43;;
51614;SDS011;37695;52.960;6.188;2024-01-16T14:15:13;5.10;;;0.40;;
51614;SDS011;37695;52.960;6.188;2024-01-16T14:17:49;4.97;;;0.70;;
51614;SDS011;37695;52.960;6.188;2024-01-16T14:20:16;1.75;;;0.30;;
51614;SDS011;37695;52.960;6.188;2024-01-16T14:22:43;3.45;;;0.35;;
51614;SDS011;37695;52.960;6.188;2024-01-16T14:25:10;2.33;;;0.32;;
51614;SDS011;37695;52.960;6.188;2024-01-16T14:27:40;3.25;;;0.40;;
51614;SDS011;37695;52.960;6.188;2024-01-16T14:30:07;4.95;;;1.00;;
51614;SDS011;37695;52.960;6.188;2024-01-16T14:32:39;4.55;;;0.60;;
51614;SDS011;37695;52.960;6.188;2024-01-16T14:35:09;3.15;;;0.43;;
51614;SDS011;37695;52.960;6.188;2024-01-16T14:37:36;2.00;;;0.43;;
51614;SDS011;37695;52.960;6.188;2024-01-16T14:40:03;2.10;;;0.38;;
51614;SDS011;37695;52.960;6.188;2024-01-16T14:42:45;7.63;;;0.70;;
51614;SDS011;37695;52.960;6.188;2024-01-16T14:45:13;4.50;;;0.60;;
51614;SDS011;37695;52.960;6.188;2024-01-16T14:47:39;2.65;;;0.70;;
51614;SDS011;37695;52.960;6.188;2024-01-16T14:50:06;7.28;;;1.05;;
51614;SDS011;37695;52.960;6.188;2024-01-16T14:52:32;2.88;;;0.40;;
51614;SDS011;37695;52.960;6.188;2024-01-16T14:55:02;6.85;;;0.75;;
51614;SDS011;37695;52.960;6.188;2024-01-16T14:57:32;5.63;;;0.63;;
51614;SDS011;37695;52.960;6.188;2024-01-16T15:00:06;3.50;;;0.47;;
51614;SDS011;37695;52.960;6.188;2024-01-16T15:02:41;3.72;;;0.20;;
51614;SDS011;37695;52.960;6.188;2024-01-16T15:05:06;3.78;;;0.30;;
51614;SDS011;37695;52.960;6.188;2024-01-16T15:07:33;1.92;;;0.40;;
51614;SDS011;37695;52.960;6.188;2024-01-16T15:09:59;2.35;;;0.30;;
51614;SDS011;37695;52.960;6.188;2024-01-16T15:12:26;3.58;;;0.28;;